Time;durP1;ratioP1;P1;durP2;ratioP2;P2;SDS_P1;SDS_P2;PMS_P1;PMS_P2;Temp;Humidity;BMP_temperature;BMP_pressure;BME280_temperature;BME280_humidity;BME280_pressure;Samples;Min_cycle;Max_cycle;Signal;HPM_P1;HPM_P2
2022/05/10 00:00:03;;;;;;;5.60;2.03;;;;;;;;;;5045557;28;20128;-72
2022/05/10 00:02:30;;;;;;;4.68;2.00;;;;;;;;;;5061335;28;20044;-72
2022/05/10 00:04:56;;;;;;;4.78;2.05;;;;;;;;;;5046691;28;20143;-72
2022/05/10 00:07:23;;;;;;;6.85;2.70;;;;;;;;;;5073726;28;20048;-72
2022/05/10 00:09:49;;;;;;;5.07;2.20;;;;;;;;;;5058513;28;20048;-72
2022/05/10 00:12:15;;;;;;;5.82;2.03;;;;;;;;;;5065797;28;20201;-72
2022/05/10 00:14:41;;;;;;;5.57;1.80;;;;;;;;;;5065558;28;20662;-72
2022/05/10 00:17:09;;;;;;;5.45;2.22;;;;;;;;;;5065873;28;20048;-72
2022/05/10 00:19:35;;;;;;;4.78;1.95;;;;;;;;;;5065635;28;20048;-72
2022/05/10 00:22:01;;;;;;;6.10;1.90;;;;;;;;;;5066201;28;20052;-72
2022/05/10 00:24:27;;;;;;;5.65;2.03;;;;;;;;;;5065470;28;20126;-72
2022/05/10 00:26:55;;;;;;;5.28;2.38;;;;;;;;;;5065240;28;20044;-71
2022/05/10 00:29:21;;;;;;;5.00;2.10;;;;;;;;;;5037056;28;20056;-72
2022/05/10 00:31:47;;;;;;;5.95;2.47;;;;;;;;;;5055754;28;20045;-72
2022/05/10 00:34:15;;;;;;;5.63;2.10;;;;;;;;;;5061890;28;20144;-72
2022/05/10 00:36:41;;;;;;;5.93;2.20;;;;;;;;;;5057568;28;20579;-72
2022/05/10 00:39:07;;;;;;;5.20;2.05;;;;;;;;;;5047978;28;20093;-72
2022/05/10 00:41:37;;;;;;;5.65;2.15;;;;;;;;;;5065344;28;20097;-72
2022/05/10 00:44:07;;;;;;;6.40;2.17;;;;;;;;;;5065016;28;20087;-72
2022/05/10 00:46:36;;;;;;;5.18;2.05;;;;;;;;;;5065537;28;20170;-71
2022/05/10 00:49:10;;;;;;;6.93;2.33;;;;;;;;;;5063776;28;20056;-72
2022/05/10 00:51:40;;;;;;;5.45;2.22;;;;;;;;;;5048593;28;20040;-72
2022/05/10 00:54:25;;;;;;;4.85;2.08;;;;;;;;;;5065565;28;20075;-72
2022/05/10 00:56:51;;;;;;;5.38;2.10;;;;;;;;;;5044907;28;20132;-72
2022/05/10 00:59:26;;;;;;;5.00;1.80;;;;;;;;;;5059999;28;20124;-72
2022/05/10 01:01:54;;;;;;;4.85;1.75;;;;;;;;;;5064822;28;20532;-72
2022/05/10 01:04:27;;;;;;;5.03;2.05;;;;;;;;;;5057655;28;20280;-72
2022/05/10 01:06:59;;;;;;;5.20;2.05;;;;;;;;;;5060390;28;20378;-72
2022/05/10 01:09:44;;;;;;;5.85;1.90;;;;;;;;;;5065504;28;20047;-72
2022/05/10 01:12:13;;;;;;;5.22;2.30;;;;;;;;;;5064826;28;20045;-72
2022/05/10 01:14:45;;;;;;;5.63;1.98;;;;;;;;;;5063722;28;20671;-72
2022/05/10 01:17:11;;;;;;;6.03;2.10;;;;;;;;;;5065053;28;20055;-72
2022/05/10 01:19:37;;;;;;;5.60;2.10;;;;;;;;;;5064111;28;20040;-72
2022/05/10 01:22:19;;;;;;;5.07;2.03;;;;;;;;;;5064775;28;20048;-72
2022/05/10 01:24:54;;;;;;;4.82;2.05;;;;;;;;;;5064596;28;20123;-72
2022/05/10 01:27:19;;;;;;;;;;;;;;;;;;5058753;28;20094;-72
2022/05/10 01:30:06;;;;;;;5.72;2.17;;;;;;;;;;5044174;28;20362;-72
2022/05/10 01:35:24;;;;;;;4.60;2.00;;;;;;;;;;5060170;28;20052;-72
2022/05/10 01:37:52;;;;;;;5.50;2.13;;;;;;;;;;5035439;28;20040;-72
2022/05/10 01:40:21;;;;;;;5.18;2.17;;;;;;;;;;5044646;28;20094;-72
2022/05/10 01:43:03;;;;;;;5.70;1.90;;;;;;;;;;5058754;28;20049;-72
2022/05/10 01:45:35;;;;;;;5.50;2.03;;;;;;;;;;5022525;28;20036;-71
2022/05/10 01:48:02;;;;;;;4.95;1.80;;;;;;;;;;5066423;28;20048;-72
2022/05/10 01:50:47;;;;;;;4.07;1.60;;;;;;;;;;5063003;28;20040;-73
2022/05/10 01:53:32;;;;;;;5.15;1.88;;;;;;;;;;5063634;28;20036;-72
2022/05/10 01:56:06;;;;;;;5.90;1.80;;;;;;;;;;5063748;28;20044;-72
2022/05/10 01:58:34;;;;;;;5.10;2.03;;;;;;;;;;5064134;28;20704;-72
2022/05/10 02:01:20;;;;;;;4.18;1.73;;;;;;;;;;5046729;28;20098;-72
2022/05/10 02:03:59;;;;;;;6.13;2.08;;;;;;;;;;5031910;28;20044;-72
2022/05/10 02:06:34;;;;;;;5.25;2.10;;;;;;;;;;5047113;28;20660;-72
2022/05/10 02:09:18;;;;;;;6.03;2.15;;;;;;;;;;5033631;28;20051;-72
2022/05/10 02:11:48;;;;;;;4.53;1.80;;;;;;;;;;5063167;28;20135;-72
2022/05/10 02:14:32;;;;;;;4.88;1.80;;;;;;;;;;5063140;28;20040;-72
2022/05/10 02:17:01;;;;;;;5.93;1.90;;;;;;;;;;5063529;28;20036;-72
2022/05/10 02:19:45;;;;;;;5.85;1.90;;;;;;;;;;5062323;28;20052;-72
2022/05/10 02:22:21;;;;;;;5.88;2.00;;;;;;;;;;5063002;28;20082;-72
2022/05/10 02:24:52;;;;;;;4.57;1.75;;;;;;;;;;5063286;28;20048;-72
2022/05/10 02:27:32;;;;;;;5.40;1.95;;;;;;;;;;5046707;28;20050;-72
2022/05/10 02:30:06;;;;;;;4.55;1.90;;;;;;;;;;5063131;28;20663;-72
2022/05/10 02:35:26;;;;;;;4.63;1.73;;;;;;;;;;5062902;28;20135;-72
2022/05/10 02:37:52;;;;;;;4.75;1.88;;;;;;;;;;5063454;28;20459;-72
2022/05/10 02:40:18;;;;;;;4.85;2.00;;;;;;;;;;5046541;28;20033;-72
2022/05/10 02:42:45;;;;;;;5.13;1.92;;;;;;;;;;5063291;28;20694;-72
2022/05/10 02:45:12;;;;;;;4.53;1.80;;;;;;;;;;5062909;28;20086;-72
2022/05/10 02:47:42;;;;;;;5.15;1.80;;;;;;;;;;5062996;28;20049;-72
2022/05/10 02:50:12;;;;;;;4.95;1.88;;;;;;;;;;5062720;28;20515;-71
2022/05/10 02:52:39;;;;;;;5.20;1.90;;;;;;;;;;5062914;28;20079;-72
2022/05/10 02:55:11;;;;;;;4.07;1.90;;;;;;;;;;5057224;28;20055;-72
2022/05/10 02:57:37;;;;;;;5.43;2.00;;;;;;;;;;5053631;28;20098;-72
2022/05/10 03:00:04;;;;;;;5.25;1.85;;;;;;;;;;5046342;28;20040;-72
2022/05/10 03:02:34;;;;;;;6.85;2.30;;;;;;;;;;5063347;28;20075;-71
2022/05/10 03:05:00;;;;;;;6.30;1.90;;;;;;;;;;5061247;28;20071;-71
2022/05/10 03:07:27;;;;;;;4.40;2.00;;;;;;;;;;5062937;28;20048;-71
2022/05/10 03:09:53;;;;;;;6.63;2.00;;;;;;;;;;5062669;28;20041;-72
2022/05/10 03:12:19;;;;;;;5.93;2.00;;;;;;;;;;5062927;28;20046;-72
2022/05/10 03:14:45;;;;;;;5.05;1.92;;;;;;;;;;5062687;28;20052;-71
2022/05/10 03:17:12;;;;;;;4.85;1.92;;;;;;;;;;5062593;28;20044;-71
2022/05/10 03:19:39;;;;;;;5.22;2.10;;;;;;;;;;5062269;28;20036;-72
2022/05/10 03:22:05;;;;;;;5.35;2.15;;;;;;;;;;5062819;28;20461;-71
2022/05/10 03:24:31;;;;;;;5.95;2.10;;;;;;;;;;5062851;28;20667;-71
2022/05/10 03:26:58;;;;;;;4.60;2.10;;;;;;;;;;5060358;28;20534;-72
2022/05/10 03:29:25;;;;;;;5.63;2.10;;;;;;;;;;5037621;28;20045;-72
2022/05/10 03:31:51;;;;;;;4.78;1.70;;;;;;;;;;5044133;28;20098;-72
2022/05/10 03:37:02;;;;;;;6.20;2.10;;;;;;;;;;5050531;28;20049;-72
2022/05/10 03:39:28;;;;;;;5.25;2.08;;;;;;;;;;5057325;28;20513;-72
2022/05/10 03:41:54;;;;;;;7.45;2.22;;;;;;;;;;5063998;28;20083;-72
2022/05/10 03:44:20;;;;;;;5.07;2.00;;;;;;;;;;5066420;28;20584;-72
2022/05/10 03:46:46;;;;;;;5.85;2.10;;;;;;;;;;5066559;28;20131;-71
2022/05/10 03:49:12;;;;;;;4.80;2.00;;;;;;;;;;5065552;28;20047;-72
2022/05/10 03:51:38;;;;;;;5.10;2.00;;;;;;;;;;5066418;28;20036;-71
2022/05/10 03:54:04;;;;;;;4.85;1.98;;;;;;;;;;5049873;28;20036;-72
2022/05/10 03:56:30;;;;;;;4.70;1.92;;;;;;;;;;5028985;28;20055;-72
2022/05/10 03:58:57;;;;;;;4.38;1.73;;;;;;;;;;5050836;28;20047;-72
2022/05/10 04:01:23;;;;;;;4.70;1.73;;;;;;;;;;5048266;28;20669;-72
2022/05/10 04:03:49;;;;;;;4.65;2.00;;;;;;;;;;5066075;28;20048;-72
2022/05/10 04:06:16;;;;;;;4.90;2.05;;;;;;;;;;5060212;28;20052;-72
2022/05/10 04:08:42;;;;;;;5.13;2.17;;;;;;;;;;5033263;28;20139;-72
2022/05/10 04:11:10;;;;;;;4.65;2.22;;;;;;;;;;5052938;28;20087;-72
2022/05/10 04:13:37;;;;;;;6.03;2.25;;;;;;;;;;5045144;28;20048;-72
2022/05/10 04:16:03;;;;;;;5.82;2.33;;;;;;;;;;5052641;28;20041;-72
2022/05/10 04:18:29;;;;;;;6.32;2.70;;;;;;;;;;5066015;28;20050;-72
2022/05/10 04:20:55;;;;;;;5.93;2.40;;;;;;;;;;5048199;28;20040;-72
2022/05/10 04:23:21;;;;;;;5.40;2.22;;;;;;;;;;5070146;28;20043;-72
2022/05/10 04:25:47;;;;;;;5.70;2.10;;;;;;;;;;5086281;28;20125;-72
2022/05/10 04:28:13;;;;;;;6.35;2.10;;;;;;;;;;5069009;28;20047;-72
2022/05/10 04:30:39;;;;;;;4.95;2.20;;;;;;;;;;5086116;28;20032;-72
2022/05/10 04:33:06;;;;;;;5.50;2.30;;;;;;;;;;5071208;28;20057;-72
2022/05/10 04:35:32;;;;;;;5.90;2.00;;;;;;;;;;5046766;28;20063;-72
2022/05/10 04:38:03;;;;;;;7.28;2.30;;;;;;;;;;5040290;28;20040;-72
2022/05/10 04:43:15;;;;;;;5.13;1.90;;;;;;;;;;5052313;28;20048;-72
2022/05/10 04:45:41;;;;;;;5.57;2.08;;;;;;;;;;5032936;28;20109;-72
2022/05/10 04:48:07;;;;;;;4.90;2.00;;;;;;;;;;5045325;28;20087;-72
2022/05/10 04:50:33;;;;;;;5.03;2.13;;;;;;;;;;5043896;28;20081;-72
2022/05/10 04:52:59;;;;;;;5.93;2.15;;;;;;;;;;5028702;28;20045;-72
2022/05/10 04:55:25;;;;;;;6.70;2.22;;;;;;;;;;5045145;28;20040;-72
2022/05/10 04:57:51;;;;;;;5.82;2.65;;;;;;;;;;5045069;28;20056;-72
2022/05/10 05:00:17;;;;;;;6.63;2.45;;;;;;;;;;5045131;28;20045;-72
2022/05/10 05:02:46;;;;;;;7.28;2.38;;;;;;;;;;5044366;28;20422;-72
2022/05/10 05:05:12;;;;;;;5.00;2.25;;;;;;;;;;5044107;28;20132;-72
2022/05/10 05:07:38;;;;;;;5.28;2.25;;;;;;;;;;5033335;28;20665;-72
2022/05/10 05:10:05;;;;;;;6.05;2.20;;;;;;;;;;5071433;28;20040;-72
2022/05/10 05:12:33;;;;;;;5.25;2.00;;;;;;;;;;5037856;28;20045;-72
2022/05/10 05:15:04;;;;;;;5.20;2.03;;;;;;;;;;5047612;28;20047;-72
2022/05/10 05:17:30;;;;;;;6.82;2.70;;;;;;;;;;5064729;28;20040;-72
2022/05/10 05:19:56;;;;;;;4.72;2.10;;;;;;;;;;5053176;28;20063;-72
2022/05/10 05:22:22;;;;;;;6.53;2.83;;;;;;;;;;5048006;28;20041;-72
2022/05/10 05:24:48;;;;;;;6.57;3.10;;;;;;;;;;5064522;28;20044;-72
2022/05/10 05:27:14;;;;;;;7.35;2.67;;;;;;;;;;5048437;28;20036;-72
2022/05/10 05:29:40;;;;;;;7.00;2.75;;;;;;;;;;5048366;28;20109;-72
2022/05/10 05:32:09;;;;;;;5.85;2.45;;;;;;;;;;5064286;28;20048;-72
2022/05/10 05:34:35;;;;;;;5.70;2.67;;;;;;;;;;5064054;28;20476;-72
2022/05/10 05:39:46;;;;;;;6.25;2.72;;;;;;;;;;5064150;28;20132;-72
2022/05/10 05:42:12;;;;;;;7.28;3.05;;;;;;;;;;5064495;28;20124;-73
2022/05/10 05:44:38;;;;;;;9.25;4.05;;;;;;;;;;5064805;28;20507;-72
2022/05/10 05:47:04;;;;;;;10.73;4.75;;;;;;;;;;5064689;28;20135;-73
2022/05/10 05:49:30;;;;;;;8.02;4.32;;;;;;;;;;5063894;28;20048;-72
2022/05/10 05:51:57;;;;;;;8.95;4.05;;;;;;;;;;5061537;28;20048;-72
2022/05/10 05:54:23;;;;;;;9.02;4.18;;;;;;;;;;5053915;28;20624;-73
2022/05/10 05:56:49;;;;;;;9.90;4.43;;;;;;;;;;5055147;28;20530;-72
2022/05/10 05:59:15;;;;;;;10.05;5.35;;;;;;;;;;5064176;28;20044;-72
2022/05/10 06:01:41;;;;;;;11.73;6.20;;;;;;;;;;5073504;28;20588;-72
2022/05/10 06:04:07;;;;;;;9.73;5.45;;;;;;;;;;5056985;28;20727;-72
2022/05/10 06:06:33;;;;;;;15.32;8.20;;;;;;;;;;5033788;28;20060;-73
2022/05/10 06:08:59;;;;;;;14.70;7.47;;;;;;;;;;5045632;28;20041;-72
2022/05/10 06:11:25;;;;;;;24.70;14.38;;;;;;;;;;5049146;28;20037;-72
2022/05/10 06:13:52;;;;;;;24.60;14.20;;;;;;;;;;5063442;28;20052;-72
2022/05/10 06:16:18;;;;;;;26.85;15.77;;;;;;;;;;5055476;28;20409;-72
2022/05/10 06:18:44;;;;;;;25.50;16.58;;;;;;;;;;5041922;28;20043;-72
2022/05/10 06:21:10;;;;;;;28.27;15.40;;;;;;;;;;5044259;28;20048;-73
2022/05/10 06:23:36;;;;;;;25.52;14.57;;;;;;;;;;5043478;28;20639;-72
2022/05/10 06:26:02;;;;;;;30.85;17.50;;;;;;;;;;5043837;28;20047;-73
2022/05/10 06:28:31;;;;;;;30.10;17.27;;;;;;;;;;5043653;28;20041;-72
2022/05/10 06:30:57;;;;;;;24.90;16.25;;;;;;;;;;5043224;28;20136;-72
2022/05/10 06:33:23;;;;;;;25.48;16.55;;;;;;;;;;5041026;28;20044;-73
2022/05/10 06:35:49;;;;;;;26.55;17.60;;;;;;;;;;5042791;28;20084;-73
2022/05/10 06:38:27;;;;;;;26.08;17.33;;;;;;;;;;5043228;28;20738;-73
2022/05/10 06:40:53;;;;;;;24.00;15.48;;;;;;;;;;5043297;28;20041;-73
2022/05/10 06:43:19;;;;;;;22.73;15.73;;;;;;;;;;5026425;28;20752;-73
2022/05/10 06:45:45;;;;;;;26.58;16.83;;;;;;;;;;5042892;28;20048;-73
2022/05/10 06:48:11;;;;;;;27.48;15.43;;;;;;;;;;5042977;28;20041;-73
2022/05/10 06:50:38;;;;;;;25.60;15.35;;;;;;;;;;5043297;28;20052;-73
2022/05/10 06:53:04;;;;;;;24.88;15.48;;;;;;;;;;5043371;28;20045;-72
2022/05/10 06:55:31;;;;;;;26.70;14.95;;;;;;;;;;5026367;28;20041;-73
2022/05/10 06:57:57;;;;;;;22.20;14.73;;;;;;;;;;5026485;28;20406;-73
2022/05/10 07:00:23;;;;;;;23.52;15.43;;;;;;;;;;5042862;28;20037;-74
2022/05/10 07:02:49;;;;;;;23.05;13.98;;;;;;;;;;5043165;28;20036;-73
2022/05/10 07:05:16;;;;;;;22.70;14.18;;;;;;;;;;5042676;28;20732;-74
2022/05/10 07:07:43;;;;;;;22.45;14.77;;;;;;;;;;5043073;28;20053;-74
2022/05/10 07:10:10;;;;;;;20.83;13.35;;;;;;;;;;5043013;28;20051;-73
2022/05/10 07:12:41;;;;;;;19.65;13.57;;;;;;;;;;5026434;28;20128;-74
2022/05/10 07:15:08;;;;;;;23.38;13.50;;;;;;;;;;5046563;28;20080;-74
2022/05/10 07:17:34;;;;;;;22.00;12.90;;;;;;;;;;5047242;28;20618;-73
2022/05/10 07:20:02;;;;;;;18.95;12.95;;;;;;;;;;5045188;28;20040;-73
2022/05/10 07:22:28;;;;;;;21.10;13.85;;;;;;;;;;5046756;28;20111;-73
2022/05/10 07:24:54;;;;;;;22.40;14.77;;;;;;;;;;5030449;28;20617;-73
2022/05/10 07:27:20;;;;;;;21.33;14.35;;;;;;;;;;5046952;28;20040;-73
2022/05/10 07:29:46;;;;;;;24.13;15.05;;;;;;;;;;5046382;28;20045;-73
2022/05/10 07:32:14;;;;;;;19.42;13.48;;;;;;;;;;5030025;28;20041;-73
2022/05/10 07:34:40;;;;;;;19.00;13.38;;;;;;;;;;5045810;28;20450;-73
2022/05/10 07:37:06;;;;;;;19.48;13.10;;;;;;;;;;5046708;28;20041;-74
2022/05/10 07:39:32;;;;;;;21.98;13.48;;;;;;;;;;5029730;28;20028;-74
2022/05/10 07:42:01;;;;;;;18.73;13.02;;;;;;;;;;5046464;28;20124;-73
2022/05/10 07:44:27;;;;;;;19.90;13.52;;;;;;;;;;5051996;28;20040;-74
2022/05/10 07:46:53;;;;;;;21.40;13.48;;;;;;;;;;5066550;28;20075;-74
2022/05/10 07:49:19;;;;;;;18.73;12.65;;;;;;;;;;5066003;28;20370;-74
2022/05/10 07:51:45;;;;;;;21.55;13.73;;;;;;;;;;5066761;28;20044;-74
2022/05/10 07:54:11;;;;;;;20.48;13.50;;;;;;;;;;5066240;28;20041;-73
2022/05/10 07:56:38;;;;;;;20.48;13.23;;;;;;;;;;5066124;28;20045;-73
2022/05/10 07:59:04;;;;;;;20.33;13.63;;;;;;;;;;5049616;28;20083;-74
2022/05/10 08:01:30;;;;;;;21.98;14.65;;;;;;;;;;5066260;28;20040;-73
2022/05/10 08:03:56;;;;;;;20.73;13.77;;;;;;;;;;5065152;28;20040;-74
2022/05/10 08:06:22;;;;;;;22.42;14.32;;;;;;;;;;5065679;28;20127;-73
2022/05/10 08:08:49;;;;;;;20.25;13.45;;;;;;;;;;5066539;28;20127;-74
2022/05/10 08:11:15;;;;;;;22.08;14.02;;;;;;;;;;5049477;28;20047;-74
2022/05/10 08:13:41;;;;;;;23.02;14.23;;;;;;;;;;5065650;28;20041;-74
2022/05/10 08:16:09;;;;;;;22.42;16.08;;;;;;;;;;5059216;28;20109;-73
2022/05/10 08:18:36;;;;;;;25.42;16.58;;;;;;;;;;5029266;28;20041;-74
2022/05/10 08:21:03;;;;;;;24.05;16.60;;;;;;;;;;5045392;28;20037;-74
2022/05/10 08:23:30;;;;;;;24.05;15.73;;;;;;;;;;5045782;28;20060;-73
2022/05/10 08:25:57;;;;;;;23.58;15.43;;;;;;;;;;5028760;28;20051;-73
2022/05/10 08:28:23;;;;;;;24.17;16.25;;;;;;;;;;5045851;28;20044;-73
2022/05/10 08:30:50;;;;;;;24.27;17.50;;;;;;;;;;5028669;28;20037;-74
2022/05/10 08:33:27;;;;;;;23.20;16.15;;;;;;;;;;5043917;28;20087;-74
2022/05/10 08:35:54;;;;;;;23.42;17.08;;;;;;;;;;5045475;28;20041;-73
2022/05/10 08:38:20;;;;;;;26.33;18.20;;;;;;;;;;5045816;28;20483;-73
2022/05/10 08:40:48;;;;;;;27.20;17.92;;;;;;;;;;5045342;28;20344;-73
2022/05/10 08:43:27;;;;;;;25.85;17.45;;;;;;;;;;5045153;28;20041;-73
2022/05/10 08:45:53;;;;;;;25.42;18.63;;;;;;;;;;5063197;28;20370;-74
2022/05/10 08:48:19;;;;;;;24.73;16.48;;;;;;;;;;5065200;28;20131;-73
2022/05/10 08:50:47;;;;;;;25.40;18.20;;;;;;;;;;5063967;28;20123;-73
2022/05/10 08:53:13;;;;;;;27.50;19.45;;;;;;;;;;5064676;28;20037;-74
2022/05/10 08:55:48;;;;;;;24.83;19.08;;;;;;;;;;5064702;28;20596;-73
2022/05/10 08:58:33;;;;;;;26.50;19.15;;;;;;;;;;5065477;28;20719;-74
2022/05/10 09:01:02;;;;;;;26.73;19.77;;;;;;;;;;5065093;28;20042;-73
2022/05/10 09:03:41;;;;;;;27.10;19.52;;;;;;;;;;5048211;28;20431;-73
2022/05/10 09:06:12;;;;;;;25.52;18.75;;;;;;;;;;5064738;28;20045;-73
2022/05/10 09:08:46;;;;;;;25.70;17.75;;;;;;;;;;5065706;28;20040;-73
2022/05/10 09:11:14;;;;;;;23.95;18.20;;;;;;;;;;5065060;28;20041;-73
2022/05/10 09:13:42;;;;;;;28.23;20.70;;;;;;;;;;5048282;28;20044;-74
2022/05/10 09:16:09;;;;;;;33.22;22.00;;;;;;;;;;5058164;28;20110;-74
2022/05/10 09:18:39;;;;;;;29.88;21.27;;;;;;;;;;5044620;28;20037;-74
2022/05/10 09:21:11;;;;;;;28.67;20.90;;;;;;;;;;5064701;28;20044;-73
2022/05/10 09:23:46;;;;;;;27.23;20.00;;;;;;;;;;5068293;28;20128;-73
2022/05/10 09:26:13;;;;;;;27.65;19.85;;;;;;;;;;5084682;28;20097;-74
2022/05/10 09:28:44;;;;;;;29.52;19.88;;;;;;;;;;5067742;28;20109;-74
2022/05/10 09:36:58;;;;;;;;;;;;;;;;;;5084281;28;20143;-74
2022/05/10 09:39:34;;;;;;;32.17;22.92;;;;;;;;;;5084479;28;20505;-74
2022/05/10 09:42:01;;;;;;;30.65;22.42;;;;;;;;;;5067759;28;20036;-74
2022/05/10 09:44:28;;;;;;;30.55;21.45;;;;;;;;;;5078298;28;20044;-74
2022/05/10 09:47:11;;;;;;;33.05;24.45;;;;;;;;;;5064529;28;20125;-73
2022/05/10 09:49:38;;;;;;;31.27;22.38;;;;;;;;;;5047119;28;20047;-74
2022/05/10 09:52:06;;;;;;;34.80;24.92;;;;;;;;;;5064126;28;20409;-73
2022/05/10 09:54:31;;;;;;;31.65;23.48;;;;;;;;;;5047551;28;20063;-73
2022/05/10 09:56:58;;;;;;;33.45;23.83;;;;;;;;;;5064609;28;20044;-74
2022/05/10 09:59:28;;;;;;;34.38;25.15;;;;;;;;;;5063465;28;20056;-73
2022/05/10 10:01:56;;;;;;;35.17;26.02;;;;;;;;;;5064097;28;20048;-74
2022/05/10 10:04:40;;;;;;;34.20;25.55;;;;;;;;;;5063148;28;20638;-74
2022/05/10 10:07:06;;;;;;;32.45;24.77;;;;;;;;;;5064655;28;20608;-73
2022/05/10 10:09:40;;;;;;;33.75;25.80;;;;;;;;;;5048071;28;20141;-74
2022/05/10 10:12:12;;;;;;;38.90;26.83;;;;;;;;;;5063488;28;20040;-74
2022/05/10 10:14:45;;;;;;;36.42;26.90;;;;;;;;;;5063542;28;20039;-73
2022/05/10 10:17:32;;;;;;;37.77;27.77;;;;;;;;;;5048390;28;20131;-73
2022/05/10 10:20:01;;;;;;;34.15;26.33;;;;;;;;;;5043528;28;20033;-73
2022/05/10 10:22:34;;;;;;;37.97;28.35;;;;;;;;;;5043908;28;20079;-73
2022/05/10 10:25:24;;;;;;;41.65;30.77;;;;;;;;;;5043658;28;20045;-73
2022/05/10 10:27:52;;;;;;;41.83;29.95;;;;;;;;;;5043956;28;20045;-74
2022/05/10 10:30:22;;;;;;;38.50;30.05;;;;;;;;;;5043155;28;20525;-73
2022/05/10 10:33:08;;;;;;;39.33;29.73;;;;;;;;;;5043106;28;20513;-73
2022/05/10 10:35:39;;;;;;;44.30;31.73;;;;;;;;;;5042670;28;20045;-73
2022/05/10 10:38:17;;;;;;;38.70;30.38;;;;;;;;;;5042981;28;20048;-73
2022/05/10 10:40:49;;;;;;;41.33;30.55;;;;;;;;;;5043246;28;20041;-74
2022/05/10 10:43:54;;;;;;;43.70;32.30;;;;;;;;;;5042761;28;20040;-73
2022/05/10 10:46:20;;;;;;;;;;;;;;;;;;5002536;28;20042;-73
2022/05/10 10:48:49;;;;;;;45.20;32.85;;;;;;;;;;4985287;28;19918;-73
2022/05/10 10:51:16;;;;;;;39.90;31.20;;;;;;;;;;5021693;28;20053;-74
2022/05/10 10:53:44;;;;;;;45.78;33.53;;;;;;;;;;5026241;28;20040;-73
2022/05/10 10:56:10;;;;;;;41.50;30.38;;;;;;;;;;5042963;28;20073;-73
2022/05/10 10:58:49;;;;;;;42.53;31.58;;;;;;;;;;5042523;28;20079;-73
2022/05/10 11:01:18;;;;;;;40.88;31.92;;;;;;;;;;5045725;28;20037;-74
2022/05/10 11:03:54;;;;;;;40.53;31.70;;;;;;;;;;5082698;28;20070;-74
2022/05/10 11:06:24;;;;;;;40.78;30.75;;;;;;;;;;5082758;28;20044;-73
2022/05/10 11:09:03;;;;;;;41.92;31.50;;;;;;;;;;5083218;28;20683;-74
2022/05/10 11:11:44;;;;;;;43.00;31.55;;;;;;;;;;5083070;28;20036;-73
2022/05/10 11:14:16;;;;;;;42.40;32.60;;;;;;;;;;5066202;28;20089;-73
2022/05/10 11:17:01;;;;;;;42.63;33.25;;;;;;;;;;5071285;28;20041;-73
2022/05/10 11:19:27;;;;;;;43.05;33.08;;;;;;;;;;5062345;28;20036;-73
2022/05/10 11:22:03;;;;;;;45.85;32.72;;;;;;;;;;5063210;28;20454;-73
2022/05/10 11:24:55;;;;;;;38.75;29.80;;;;;;;;;;5046599;28;20480;-73
2022/05/10 11:27:28;;;;;;;45.45;34.05;;;;;;;;;;5046529;28;20539;-73
2022/05/10 11:30:08;;;;;;;44.70;33.45;;;;;;;;;;5062855;28;20382;-73
2022/05/10 11:32:37;;;;;;;40.75;32.38;;;;;;;;;;5062715;28;20036;-73
2022/05/10 11:35:22;;;;;;;45.90;32.28;;;;;;;;;;5045043;28;20056;-73
2022/05/10 11:37:52;;;;;;;48.97;33.55;;;;;;;;;;5046350;28;20094;-75
2022/05/10 11:40:32;;;;;;;40.80;31.13;;;;;;;;;;5062909;28;20428;-73
2022/05/10 11:43:18;;;;;;;42.63;31.50;;;;;;;;;;5062395;28;20114;-73
2022/05/10 11:45:53;;;;;;;43.97;32.72;;;;;;;;;;5062720;28;20166;-73
2022/05/10 11:48:22;;;;;;;42.90;32.70;;;;;;;;;;5061874;28;20517;-74
2022/05/10 11:53:54;;;;;;;41.00;31.58;;;;;;;;;;5039222;28;20048;-74
2022/05/10 11:56:20;;;;;;;40.63;30.90;;;;;;;;;;5045827;28;20048;-73
2022/05/10 11:58:46;;;;;;;43.22;31.27;;;;;;;;;;5062262;28;20040;-74
2022/05/10 12:01:14;;;;;;;39.40;30.10;;;;;;;;;;5066034;28;20526;-73
2022/05/10 12:03:40;;;;;;;40.38;31.45;;;;;;;;;;5064840;28;20075;-73
2022/05/10 12:06:24;;;;;;;39.80;30.83;;;;;;;;;;5066076;28;20041;-73
2022/05/10 12:08:54;;;;;;;42.40;32.40;;;;;;;;;;5065833;28;20040;-74
2022/05/10 12:11:38;;;;;;;41.80;31.77;;;;;;;;;;5066326;28;20124;-73
2022/05/10 12:22:21;;;;;;;39.15;29.48;;;;;;;;;;5086276;28;20010;-73
2022/05/10 12:24:52;;;;;;;36.33;28.98;;;;;;;;;;5086259;28;20036;-73
2022/05/10 12:27:31;;;;;;;41.88;30.20;;;;;;;;;;5086296;28;20373;-73
2022/05/10 12:29:57;;;;;;;38.55;28.65;;;;;;;;;;5086131;28;20032;-73
2022/05/10 12:32:41;;;;;;;35.85;28.15;;;;;;;;;;5086147;28;20644;-74
2022/05/10 12:35:26;;;;;;;35.30;26.75;;;;;;;;;;5085732;28;20451;-73
2022/05/10 12:37:55;;;;;;;37.72;28.52;;;;;;;;;;5069314;28;20036;-73
2022/05/10 12:40:34;;;;;;;36.67;28.10;;;;;;;;;;5086121;28;20115;-73
2022/05/10 12:43:00;;;;;;;38.25;28.98;;;;;;;;;;5085240;28;20044;-74
2022/05/10 12:45:35;;;;;;;37.50;28.42;;;;;;;;;;5071397;28;20102;-74
2022/05/10 12:48:07;;;;;;;39.50;28.67;;;;;;;;;;5058024;28;20489;-73
2022/05/10 12:50:33;;;;;;;38.95;27.52;;;;;;;;;;5047616;28;20180;-74
2022/05/10 12:53:00;;;;;;;39.25;29.65;;;;;;;;;;5064092;28;20037;-73
2022/05/10 12:55:27;;;;;;;40.22;29.80;;;;;;;;;;5046445;28;20033;-73
2022/05/10 12:58:00;;;;;;;42.08;30.30;;;;;;;;;;5058021;28;20085;-73
2022/05/10 13:00:28;;;;;;;37.03;27.05;;;;;;;;;;5065442;28;20674;-74
2022/05/10 13:02:56;;;;;;;35.97;26.67;;;;;;;;;;5064485;28;20028;-74
2022/05/10 13:05:30;;;;;;;34.25;25.70;;;;;;;;;;5062710;28;20683;-73
2022/05/10 13:07:56;;;;;;;;;;;;;;;;;;5064251;28;20107;-73
2022/05/10 13:10:23;;;;;;;37.92;28.23;;;;;;;;;;5063603;28;19991;-74
2022/05/10 13:12:55;;;;;;;35.63;26.83;;;;;;;;;;5064379;28;20043;-74
2022/05/10 13:15:22;;;;;;;37.92;28.23;;;;;;;;;;5044686;28;20049;-74
2022/05/10 13:17:51;;;;;;;40.45;27.85;;;;;;;;;;5064181;28;20040;-73
2022/05/10 13:20:21;;;;;;;36.50;27.00;;;;;;;;;;5063878;28;20051;-73
2022/05/10 13:22:52;;;;;;;38.88;27.50;;;;;;;;;;5065015;28;20044;-74
2022/05/10 13:25:35;;;;;;;41.88;30.58;;;;;;;;;;5064384;28;20047;-74
2022/05/10 13:28:09;;;;;;;36.10;27.45;;;;;;;;;;5063481;28;20076;-74
2022/05/10 13:30:35;;;;;;;37.78;26.25;;;;;;;;;;5063588;28;20139;-74
2022/05/10 13:33:01;;;;;;;39.38;29.38;;;;;;;;;;5046926;28;20049;-74
2022/05/10 13:35:31;;;;;;;40.22;28.38;;;;;;;;;;5048535;28;20072;-74
2022/05/10 13:38:12;;;;;;;43.03;29.77;;;;;;;;;;5064941;28;20123;-73
2022/05/10 13:40:46;;;;;;;38.97;28.63;;;;;;;;;;5064883;28;20044;-73
2022/05/10 13:43:12;;;;;;;;;;;;;;;;;;5064711;28;20588;-73
2022/05/10 13:45:39;;;;;;;41.33;28.38;;;;;;;;;;5064279;28;19917;-73
2022/05/10 13:48:12;;;;;;;39.97;28.83;;;;;;;;;;5062863;28;20136;-74
2022/05/10 13:50:40;;;;;;;40.05;28.55;;;;;;;;;;5047229;28;20036;-74
2022/05/10 13:53:07;;;;;;;38.40;28.00;;;;;;;;;;5063520;28;20101;-74
2022/05/10 13:55:33;;;;;;;35.65;26.83;;;;;;;;;;5047755;28;20051;-73
2022/05/10 13:58:04;;;;;;;34.67;26.48;;;;;;;;;;5046978;28;20153;-74
2022/05/10 14:00:36;;;;;;;37.45;25.42;;;;;;;;;;5063576;28;20033;-74
2022/05/10 14:03:06;;;;;;;36.00;25.05;;;;;;;;;;5047146;28;20051;-73
2022/05/10 14:05:34;;;;;;;34.83;25.15;;;;;;;;;;5063435;28;20052;-74
2022/05/10 14:08:11;;;;;;;36.70;24.77;;;;;;;;;;5063963;28;20052;-73
2022/05/10 14:10:39;;;;;;;36.78;24.15;;;;;;;;;;5047475;28;20040;-74
2022/05/10 14:13:08;;;;;;;33.42;23.75;;;;;;;;;;5063966;28;20048;-73
2022/05/10 14:15:35;;;;;;;31.63;23.80;;;;;;;;;;5061585;28;20047;-73
2022/05/10 14:18:05;;;;;;;32.33;22.98;;;;;;;;;;5027521;28;20076;-74
2022/05/10 14:20:35;;;;;;;33.95;24.67;;;;;;;;;;5043562;28;20079;-74
2022/05/10 14:23:02;;;;;;;29.20;22.13;;;;;;;;;;5043438;28;20152;-74
2022/05/10 14:25:31;;;;;;;30.92;23.17;;;;;;;;;;5043776;28;20584;-73
2022/05/10 14:28:05;;;;;;;29.92;22.20;;;;;;;;;;5043544;28;20044;-73
2022/05/10 14:30:38;;;;;;;30.10;22.38;;;;;;;;;;5043355;28;20593;-74
2022/05/10 14:33:13;;;;;;;30.88;21.77;;;;;;;;;;5042818;28;20056;-74
2022/05/10 14:35:47;;;;;;;30.05;21.10;;;;;;;;;;5043160;28;20052;-74
2022/05/10 14:38:17;;;;;;;29.92;21.52;;;;;;;;;;5043402;28;20040;-74
2022/05/10 14:40:43;;;;;;;31.30;21.15;;;;;;;;;;5043514;28;20037;-73
2022/05/10 14:43:11;;;;;;;28.85;20.05;;;;;;;;;;5026663;28;20641;-74
2022/05/10 14:45:45;;;;;;;28.92;20.70;;;;;;;;;;5042361;28;20040;-74
2022/05/10 14:48:28;;;;;;;27.05;20.60;;;;;;;;;;5063031;28;20048;-73
2022/05/10 14:50:57;;;;;;;29.83;20.63;;;;;;;;;;5062995;28;20040;-73
2022/05/10 14:53:27;;;;;;;30.60;20.35;;;;;;;;;;5062920;28;20048;-74
2022/05/10 14:55:53;;;;;;;28.50;20.00;;;;;;;;;;5063431;28;20094;-74
2022/05/10 14:58:28;;;;;;;26.85;19.10;;;;;;;;;;5063234;28;20155;-74
2022/05/10 15:01:04;;;;;;;26.88;18.58;;;;;;;;;;5062959;28;20160;-73
2022/05/10 15:03:30;;;;;;;24.65;18.30;;;;;;;;;;5044912;28;20040;-74
2022/05/10 15:05:56;;;;;;;23.55;17.20;;;;;;;;;;5062731;28;20124;-74
2022/05/10 15:08:22;;;;;;;28.80;18.90;;;;;;;;;;5063075;28;20048;-74
2022/05/10 15:10:51;;;;;;;26.13;18.75;;;;;;;;;;5062909;28;20106;-73
2022/05/10 15:13:17;;;;;;;25.73;17.48;;;;;;;;;;5062758;28;20063;-74